Time;durP1;ratioP1;P1;durP2;ratioP2;P2;SDS_P1;SDS_P2;PMS_P1;PMS_P2;Temp;Humidity;BMP_temperature;BMP_pressure;BME280_temperature;BME280_humidity;BME280_pressure;Samples;Min_cycle;Max_cycle;Signal;HPM_P1;HPM_P2
2022/02/25 00:00:16;;;;;;;9.38;7.60;;;5.90;99.90;;;;;;5122674;28;20259;-62
2022/02/25 00:02:48;;;;;;;7.82;7.13;;;5.90;99.90;;;;;;5121978;27;20232;-63
2022/02/25 00:05:22;;;;;;;7.50;6.70;;;5.90;99.90;;;;;;5123086;28;20200;-63
2022/02/25 00:07:53;;;;;;;8.30;6.93;;;5.80;99.90;;;;;;5122597;28;20304;-63
2022/02/25 00:10:31;;;;;;;6.47;5.88;;;5.60;99.90;;;;;;5122965;28;20206;-62
2022/02/25 00:13:02;;;;;;;6.80;6.03;;;5.50;99.90;;;;;;5120611;28;20278;-63
2022/02/25 00:15:33;;;;;;;6.13;5.55;;;5.60;99.90;;;;;;5123140;28;20196;-63
2022/02/25 00:18:05;;;;;;;7.65;6.95;;;5.50;99.90;;;;;;5122313;28;20232;-63
2022/02/25 00:20:42;;;;;;;8.40;6.80;;;5.50;99.90;;;;;;5122394;28;20200;-62
2022/02/25 00:23:15;;;;;;;7.63;6.93;;;5.60;99.90;;;;;;5119875;28;20287;-63
2022/02/25 00:25:49;;;;;;;7.70;6.32;;;5.70;99.90;;;;;;5122809;28;20192;-63
2022/02/25 00:28:20;;;;;;;8.38;6.80;;;5.60;99.90;;;;;;5120636;28;20586;-63
2022/02/25 00:30:51;;;;;;;7.25;6.55;;;5.50;99.90;;;;;;5121398;28;20200;-62
2022/02/25 00:33:24;;;;;;;8.27;7.47;;;5.50;99.90;;;;;;5114105;28;20272;-64
2022/02/25 00:35:55;;;;;;;8.00;7.20;;;5.50;99.90;;;;;;5119727;28;20263;-63
2022/02/25 00:38:26;;;;;;;6.43;5.82;;;5.50;99.90;;;;;;5123015;28;20588;-63
2022/02/25 00:41:01;;;;;;;10.25;6.43;;;5.40;99.90;;;;;;5121594;28;20196;-63
2022/02/25 00:43:32;;;;;;;8.25;6.57;;;5.40;99.90;;;;;;5115461;28;20225;-62
2022/02/25 00:46:08;;;;;;;6.70;6.20;;;5.40;99.90;;;;;;5123175;28;20210;-62
2022/02/25 00:48:40;;;;;;;11.90;6.95;;;5.30;99.90;;;;;;5121044;28;20226;-61
2022/02/25 00:51:12;;;;;;;9.98;7.20;;;5.40;99.90;;;;;;5121584;28;20239;-61
2022/02/25 00:53:43;;;;;;;7.82;6.80;;;5.30;99.90;;;;;;5118835;28;20196;-61
2022/02/25 00:56:21;;;;;;;6.97;6.30;;;5.10;99.90;;;;;;5122220;28;20226;-63
2022/02/25 00:58:53;;;;;;;6.75;6.07;;;5.20;99.90;;;;;;5122077;28;20207;-62
2022/02/25 01:01:26;;;;;;;8.00;6.70;;;5.20;99.90;;;;;;5116355;28;20338;-61
2022/02/25 01:04:01;;;;;;;6.18;5.57;;;5.10;99.90;;;;;;5118349;28;20517;-61
2022/02/25 01:06:37;;;;;;;6.45;5.85;;;5.00;99.90;;;;;;5121602;28;20213;-61
2022/02/25 01:09:08;;;;;;;8.40;6.65;;;5.00;99.90;;;;;;5118818;28;20303;-63
2022/02/25 01:11:40;;;;;;;7.07;5.65;;;5.10;99.90;;;;;;5120800;28;20283;-63
2022/02/25 01:14:12;;;;;;;6.88;6.15;;;5.10;99.90;;;;;;5115994;28;20188;-63
2022/02/25 01:16:43;;;;;;;6.97;6.10;;;5.00;99.90;;;;;;5122211;28;20200;-63
2022/02/25 01:19:16;;;;;;;7.05;6.35;;;5.00;99.90;;;;;;5121496;28;20246;-63
2022/02/25 01:21:53;;;;;;;7.00;5.75;;;4.90;99.90;;;;;;5119731;28;20199;-63
2022/02/25 01:24:25;;;;;;;7.47;6.75;;;4.90;99.90;;;;;;5124069;28;20212;-63
2022/02/25 01:26:59;;;;;;;7.78;6.97;;;4.80;99.90;;;;;;5126939;28;20196;-63
2022/02/25 01:29:30;;;;;;;8.93;8.02;;;4.70;99.90;;;;;;5126322;28;20198;-63
2022/02/25 01:32:26;;;;;;;8.43;6.38;;;4.70;99.90;;;;;;5126103;28;20208;-64
2022/02/25 01:34:58;;;;;;;6.60;5.97;;;4.60;99.90;;;;;;5125648;28;20532;-63
2022/02/25 01:37:29;;;;;;;7.55;6.75;;;4.60;99.90;;;;;;5126118;28;20200;-63
2022/02/25 01:40:00;;;;;;;6.68;6.00;;;4.40;99.90;;;;;;5125881;28;20224;-63
2022/02/25 01:42:32;;;;;;;7.15;6.45;;;4.30;99.90;;;;;;5124464;28;20200;-63
2022/02/25 01:45:03;;;;;;;7.35;6.65;;;4.20;99.90;;;;;;5125390;28;20195;-65
2022/02/25 01:47:34;;;;;;;8.00;7.30;;;4.30;99.90;;;;;;5125377;28;20257;-63
2022/02/25 01:50:07;;;;;;;8.65;7.82;;;4.30;99.90;;;;;;5124140;28;20276;-63
2022/02/25 01:52:41;;;;;;;9.25;7.85;;;4.20;99.90;;;;;;5122616;28;20243;-63
2022/02/25 01:55:12;;;;;;;9.20;8.30;;;4.10;99.90;;;;;;5125720;28;20267;-68
2022/02/25 01:57:43;;;;;;;9.48;8.05;;;4.00;99.90;;;;;;5121148;28;20611;-64
2022/02/25 02:00:15;;;;;;;9.77;8.77;;;4.10;99.90;;;;;;5125972;28;20291;-62
2022/02/25 02:02:46;;;;;;;10.77;8.10;;;3.90;99.90;;;;;;5125387;28;20231;-68
2022/02/25 02:05:20;;;;;;;9.07;7.93;;;3.80;99.90;;;;;;5125321;28;20272;-72
2022/02/25 02:07:53;;;;;;;10.93;8.73;;;3.70;99.90;;;;;;5124952;27;20204;-68
2022/02/25 02:10:24;;;;;;;10.48;8.30;;;3.60;99.90;;;;;;5125961;28;20265;-68
2022/02/25 02:12:55;;;;;;;9.90;8.88;;;3.60;99.90;;;;;;5124600;28;20196;-74
2022/02/25 02:15:26;;;;;;;10.40;9.40;;;3.60;99.90;;;;;;5124051;28;20206;-67
2022/02/25 02:17:59;;;;;;;14.85;9.50;;;3.60;99.90;;;;;;5124151;28;20229;-71
2022/02/25 02:20:32;;;;;;;9.55;8.45;;;3.50;99.90;;;;;;5124880;28;20299;-68
2022/02/25 02:23:05;;;;;;;10.38;8.93;;;3.40;99.90;;;;;;5123442;28;20247;-67
2022/02/25 02:25:36;;;;;;;10.77;9.02;;;3.30;99.90;;;;;;5124313;28;20239;-68
2022/02/25 02:28:23;;;;;;;11.05;8.95;;;3.20;99.90;;;;;;5122830;28;20207;-73
2022/02/25 02:30:55;;;;;;;10.05;8.90;;;3.10;99.90;;;;;;5124502;28;20239;-77
2022/02/25 02:33:26;;;;;;;10.88;9.15;;;3.10;99.90;;;;;;5121190;28;20867;-63
2022/02/25 02:35:57;;;;;;;9.77;8.80;;;3.00;99.90;;;;;;5121894;28;20199;-59
2022/02/25 02:38:33;;;;;;;11.18;9.98;;;2.90;99.90;;;;;;5123826;28;20282;-66
2022/02/25 02:41:04;;;;;;;11.57;10.48;;;2.90;99.90;;;;;;5124683;28;20227;-67
2022/02/25 02:43:36;;;;;;;10.98;9.85;;;2.90;99.90;;;;;;5122684;28;20212;-67
2022/02/25 02:46:08;;;;;;;13.20;10.50;;;2.90;99.90;;;;;;5123907;28;20199;-67
2022/02/25 02:48:39;;;;;;;12.18;10.88;;;2.90;99.90;;;;;;5123152;28;20219;-66
2022/02/25 02:51:10;;;;;;;15.98;9.98;;;2.80;99.90;;;;;;5121534;28;20208;-69
2022/02/25 02:53:43;;;;;;;11.13;9.95;;;2.70;99.90;;;;;;5120877;28;20603;-68
2022/02/25 02:56:14;;;;;;;12.35;11.05;;;2.60;99.90;;;;;;5124378;28;20284;-65
2022/02/25 02:58:55;;;;;;;11.07;9.95;;;2.50;99.90;;;;;;5122016;28;20206;-65
2022/02/25 03:01:28;;;;;;;11.93;10.65;;;2.50;99.90;;;;;;5122596;28;20314;-65
2022/02/25 03:04:00;;;;;;;12.88;11.55;;;2.50;99.90;;;;;;5122578;28;20646;-67
2022/02/25 03:06:36;;;;;;;12.85;11.02;;;2.40;99.90;;;;;;5123814;28;20616;-66
2022/02/25 03:09:13;;;;;;;12.95;11.02;;;2.40;99.90;;;;;;5123960;28;20222;-66
2022/02/25 03:11:44;;;;;;;12.07;10.63;;;2.30;99.90;;;;;;5122271;28;20204;-67
2022/02/25 03:14:15;;;;;;;13.45;11.45;;;2.30;99.90;;;;;;5123206;28;20264;-63
2022/02/25 03:16:46;;;;;;;15.63;12.07;;;2.30;99.90;;;;;;5124336;28;20566;-60
2022/02/25 03:19:17;;;;;;;14.90;11.25;;;2.30;99.90;;;;;;5122527;28;20215;-65
2022/02/25 03:21:48;;;;;;;13.75;11.70;;;2.30;99.90;;;;;;5121545;28;20207;-62
2022/02/25 03:24:22;;;;;;;14.50;11.95;;;2.30;99.90;;;;;;5120022;28;20267;-63
2022/02/25 03:26:52;;;;;;;16.35;12.13;;;2.20;99.90;;;;;;5122235;28;20216;-62
2022/02/25 03:29:26;;;;;;;12.55;11.25;;;2.20;99.90;;;;;;5118155;28;20230;-63
2022/02/25 03:31:58;;;;;;;13.60;11.82;;;2.00;99.90;;;;;;5120362;27;20526;-63
2022/02/25 03:34:32;;;;;;;19.83;12.48;;;2.00;99.90;;;;;;5122221;28;20265;-62
2022/02/25 03:37:02;;;;;;;16.90;13.25;;;2.00;99.90;;;;;;5121490;28;20291;-62
2022/02/25 03:39:42;;;;;;;18.90;14.18;;;1.90;99.90;;;;;;5123419;28;20637;-66
2022/02/25 03:42:13;;;;;;;17.50;12.90;;;1.90;99.90;;;;;;5121237;28;20625;-62
2022/02/25 03:44:44;;;;;;;18.33;15.32;;;1.80;99.90;;;;;;5120526;28;20208;-64
2022/02/25 03:47:16;;;;;;;17.00;13.98;;;1.80;99.90;;;;;;5119894;28;20616;-62
2022/02/25 03:49:52;;;;;;;17.42;14.02;;;1.80;99.90;;;;;;5118073;28;20233;-61
2022/02/25 03:52:24;;;;;;;17.20;14.00;;;1.70;99.90;;;;;;5121087;28;20198;-59
2022/02/25 03:55:02;;;;;;;17.98;14.85;;;1.70;99.90;;;;;;5122039;28;20200;-61
2022/02/25 03:57:34;;;;;;;19.27;13.57;;;1.70;99.90;;;;;;5120001;28;20228;-61
2022/02/25 04:00:08;;;;;;;17.30;14.40;;;1.60;99.90;;;;;;5121886;28;20241;-61
2022/02/25 04:02:39;;;;;;;15.88;14.00;;;1.40;99.90;;;;;;5121004;28;20215;-61
2022/02/25 04:05:12;;;;;;;18.67;13.85;;;1.50;99.90;;;;;;5121141;28;20250;-62
2022/02/25 04:07:44;;;;;;;18.60;16.10;;;1.50;99.90;;;;;;5120667;28;20228;-61
2022/02/25 04:10:17;;;;;;;18.60;15.93;;;1.40;99.90;;;;;;5121374;28;20208;-62
2022/02/25 04:12:48;;;;;;;21.55;16.48;;;1.50;99.90;;;;;;5119469;28;20215;-61
2022/02/25 04:15:21;;;;;;;18.35;14.85;;;1.40;99.90;;;;;;5118625;28;20238;-62
2022/02/25 04:17:54;;;;;;;18.33;15.82;;;1.20;99.90;;;;;;5121247;28;20210;-62
2022/02/25 04:20:50;;;;;;;21.67;16.83;;;1.30;99.90;;;;;;5120438;28;20219;-62
2022/02/25 04:23:21;;;;;;;19.50;16.92;;;1.30;99.90;;;;;;5120674;28;20220;-62
2022/02/25 04:25:54;;;;;;;20.30;17.90;;;1.30;99.90;;;;;;5121565;28;20565;-61
2022/02/25 04:28:25;;;;;;;24.13;18.13;;;1.20;99.90;;;;;;5120959;28;20653;-61
2022/02/25 04:30:57;;;;;;;29.05;21.92;;;1.20;99.90;;;;;;5122360;28;20195;-62
2022/02/25 04:33:28;;;;;;;23.85;19.65;;;1.10;99.90;;;;;;5121478;28;20268;-62
2022/02/25 04:35:58;;;;;;;25.15;21.02;;;1.10;99.90;;;;;;5121613;28;20208;-61
2022/02/25 04:38:29;;;;;;;26.52;20.95;;;1.10;99.90;;;;;;5122741;28;20216;-62
2022/02/25 04:41:05;;;;;;;680.35;147.60;;;1.10;99.90;;;;;;5122719;28;20216;-62
2022/02/25 04:43:38;;;;;;;24.50;20.83;;;1.00;99.90;;;;;;5121481;28;20198;-61
2022/02/25 04:46:15;;;;;;;26.98;21.23;;;1.00;99.90;;;;;;5120458;28;20287;-61
2022/02/25 04:48:47;;;;;;;26.35;20.33;;;0.90;99.90;;;;;;5122551;28;20249;-61
2022/02/25 04:51:18;;;;;;;21.08;17.45;;;0.70;99.90;;;;;;5121502;28;20204;-60
2022/02/25 04:53:50;;;;;;;25.17;19.38;;;0.70;99.90;;;;;;5121613;28;20340;-60
2022/02/25 04:56:23;;;;;;;20.98;17.85;;;0.80;99.90;;;;;;5120498;28;20227;-61
2022/02/25 04:58:54;;;;;;;21.15;18.40;;;0.80;99.90;;;;;;5120007;28;20184;-61
2022/02/25 05:01:25;;;;;;;23.48;19.10;;;0.80;99.90;;;;;;5120993;28;20564;-61
2022/02/25 05:03:57;;;;;;;23.35;19.10;;;0.70;99.90;;;;;;5122401;28;20282;-61
2022/02/25 05:06:28;;;;;;;22.20;19.55;;;0.70;99.90;;;;;;5119367;28;20291;-62
2022/02/25 05:08:59;;;;;;;24.48;20.58;;;0.70;99.90;;;;;;5121774;28;20307;-62
2022/02/25 05:11:32;;;;;;;24.40;18.60;;;0.70;99.90;;;;;;5121821;28;20196;-61
2022/02/25 05:14:03;;;;;;;23.60;20.52;;;0.70;99.90;;;;;;5120420;28;20218;-61
2022/02/25 05:22:08;;;;;;;23.30;20.80;;;0.60;99.90;;;;;;5121566;28;20231;-61
2022/02/25 05:24:40;;;;;;;21.95;19.40;;;0.60;99.90;;;;;;5121037;28;20223;-61
2022/02/25 05:27:12;;;;;;;25.58;20.35;;;0.60;99.90;;;;;;5120439;28;20204;-61
2022/02/25 05:29:43;;;;;;;27.17;20.98;;;0.50;99.90;;;;;;5119962;28;21891;-61
2022/02/25 05:32:14;;;;;;;25.77;21.50;;;0.50;99.90;;;;;;5121686;28;20198;-61
2022/02/25 05:34:45;;;;;;;28.75;22.15;;;0.50;99.90;;;;;;5121549;28;20204;-61
2022/02/25 05:37:16;;;;;;;28.98;22.58;;;0.40;99.90;;;;;;5120616;28;20553;-62
2022/02/25 05:39:46;;;;;;;28.70;21.98;;;0.40;99.90;;;;;;5119481;28;20200;-62
2022/02/25 05:42:20;;;;;;;26.83;20.92;;;0.30;99.90;;;;;;5116748;28;20234;-60
2022/02/25 05:44:55;;;;;;;27.23;21.80;;;0.40;99.90;;;;;;5118732;28;20259;-61
2022/02/25 05:47:26;;;;;;;23.45;20.73;;;0.40;99.90;;;;;;5120337;28;20196;-61
2022/02/25 05:50:00;;;;;;;32.97;22.02;;;0.30;99.90;;;;;;5122265;28;20195;-61
2022/02/25 05:52:31;;;;;;;29.38;21.20;;;0.30;99.90;;;;;;5120933;28;20263;-61
2022/02/25 05:55:01;;;;;;;28.20;20.83;;;0.30;99.90;;;;;;5121573;28;20200;-62
2022/02/25 05:57:34;;;;;;;24.23;18.83;;;0.20;99.90;;;;;;5118609;28;20299;-61
2022/02/25 06:00:07;;;;;;;25.13;22.23;;;0.20;99.90;;;;;;5118776;28;20215;-61
2022/02/25 06:02:38;;;;;;;23.80;20.25;;;0.10;99.90;;;;;;5119824;28;20247;-61
2022/02/25 06:05:10;;;;;;;27.08;21.33;;;0.20;99.90;;;;;;5119872;28;20222;-60
2022/02/25 06:07:42;;;;;;;25.90;20.50;;;0.10;99.90;;;;;;5120917;28;20231;-60
2022/02/25 06:10:13;;;;;;;25.35;21.05;;;0.10;99.90;;;;;;5120229;28;20230;-61
2022/02/25 06:12:46;;;;;;;25.25;20.50;;;0.10;99.90;;;;;;5123769;28;20196;-61
2022/02/25 06:15:17;;;;;;;26.38;21.10;;;0.10;99.90;;;;;;5124044;28;20268;-61
2022/02/25 06:17:49;;;;;;;25.25;20.73;;;0.00;99.90;;;;;;5123182;28;20207;-60
2022/02/25 06:20:21;;;;;;;25.23;19.58;;;0.00;99.90;;;;;;5125263;28;20188;-60
2022/02/25 06:22:53;;;;;;;24.63;20.90;;;-0.10;99.90;;;;;;5123960;28;20230;-61
2022/02/25 06:25:24;;;;;;;27.08;22.27;;;-0.10;99.90;;;;;;5121129;28;20627;-60
2022/02/25 06:27:56;;;;;;;26.83;21.17;;;-0.10;99.90;;;;;;5122022;28;20196;-61
2022/02/25 06:30:27;;;;;;;27.67;23.13;;;-0.20;99.90;;;;;;5121315;28;20223;-61
2022/02/25 06:32:58;;;;;;;28.00;23.00;;;-0.20;99.90;;;;;;5122623;28;20222;-61
2022/02/25 06:35:29;;;;;;;27.02;22.75;;;-0.20;99.90;;;;;;5123680;28;20195;-61
2022/02/25 06:38:00;;;;;;;25.30;21.02;;;-0.20;99.90;;;;;;5123327;28;20291;-61
2022/02/25 06:40:31;;;;;;;29.08;21.58;;;-0.30;99.90;;;;;;5121227;28;20279;-61
2022/02/25 06:43:04;;;;;;;26.55;21.48;;;-0.20;99.90;;;;;;5120696;28;20219;-61
2022/02/25 06:45:35;;;;;;;26.10;22.42;;;-0.20;99.90;;;;;;5123945;28;20516;-61
2022/02/25 06:48:07;;;;;;;28.60;21.02;;;-0.30;99.90;;;;;;5124391;28;20200;-61
2022/02/25 06:50:38;;;;;;;29.08;22.77;;;-0.40;99.90;;;;;;5125123;28;20293;-61
2022/02/25 06:53:11;;;;;;;28.33;21.25;;;-0.30;99.90;;;;;;5123616;28;20199;-62
2022/02/25 06:55:42;;;;;;;30.40;22.10;;;-0.30;99.90;;;;;;5124746;28;20264;-61
2022/02/25 06:58:17;;;;;;;23.77;21.17;;;-0.40;99.90;;;;;;5124035;28;20199;-61
2022/02/25 07:00:49;;;;;;;22.42;18.13;;;-0.30;99.90;;;;;;5123981;28;20259;-60
2022/02/25 07:03:22;;;;;;;28.77;19.90;;;-0.30;99.90;;;;;;5124128;28;20223;-60
2022/02/25 07:05:55;;;;;;;24.52;19.45;;;-0.40;99.90;;;;;;5124761;28;20219;-60
2022/02/25 07:08:28;;;;;;;25.27;20.92;;;-0.40;99.90;;;;;;5125158;28;20623;-60
2022/02/25 07:11:00;;;;;;;23.55;19.40;;;-0.50;99.90;;;;;;5124279;28;20601;-60
2022/02/25 07:13:33;;;;;;;24.02;20.27;;;-0.50;99.90;;;;;;5122060;28;20204;-60
2022/02/25 07:16:05;;;;;;;23.50;19.05;;;-0.50;99.90;;;;;;5123774;27;20237;-60
2022/02/25 07:18:37;;;;;;;26.52;20.20;;;-0.50;99.90;;;;;;5123945;28;20200;-61
2022/02/25 07:21:12;;;;;;;23.45;18.65;;;-0.50;99.90;;;;;;5124245;28;20284;-60
2022/02/25 07:23:52;;;;;;;26.13;19.52;;;-0.50;99.90;;;;;;5124868;28;20231;-60
2022/02/25 07:26:23;;;;;;;22.30;18.10;;;-0.60;99.90;;;;;;5122741;28;20531;-61
2022/02/25 07:28:56;;;;;;;20.45;16.80;;;-0.60;99.90;;;;;;5123625;28;20196;-61
2022/02/25 07:31:30;;;;;;;21.00;16.70;;;-0.60;99.90;;;;;;5124159;28;20250;-60
2022/02/25 07:34:06;;;;;;;19.67;15.60;;;-0.50;99.90;;;;;;5124457;28;20210;-61
2022/02/25 07:36:37;;;;;;;20.85;14.98;;;-0.50;99.90;;;;;;5123658;28;20223;-60
2022/02/25 07:39:11;;;;;;;13.77;12.20;;;-0.50;99.90;;;;;;5124154;28;20204;-62
2022/02/25 07:41:42;;;;;;;16.38;13.43;;;-0.50;99.90;;;;;;5122718;28;20283;-60
2022/02/25 07:44:16;;;;;;;14.32;12.70;;;-0.60;99.90;;;;;;5122553;28;20196;-60
2022/02/25 07:46:47;;;;;;;19.90;13.98;;;-0.60;99.90;;;;;;5123519;28;20220;-60
2022/02/25 07:49:26;;;;;;;17.63;13.50;;;-0.60;99.90;;;;;;5123166;28;20643;-60
2022/02/25 07:51:57;;;;;;;16.70;14.90;;;-0.70;99.90;;;;;;5123900;28;20196;-61
2022/02/25 07:54:33;;;;;;;16.27;12.85;;;-0.70;99.90;;;;;;5123504;28;20188;-60
2022/02/25 07:57:03;;;;;;;14.95;12.45;;;-0.70;99.90;;;;;;5122617;28;20231;-60
2022/02/25 07:59:40;;;;;;;17.98;13.15;;;-0.80;99.90;;;;;;5122328;28;20212;-60
2022/02/25 08:02:11;;;;;;;14.32;11.10;;;-0.80;99.90;;;;;;5123718;28;20739;-60
2022/02/25 08:04:43;;;;;;;14.73;12.68;;;-0.90;99.90;;;;;;5123138;28;20222;-61
2022/02/25 08:07:32;;;;;;;13.63;11.90;;;-0.90;99.90;;;;;;5123622;28;20212;-60
2022/02/25 08:10:05;;;;;;;12.50;10.40;;;-0.90;99.90;;;;;;5112696;28;20199;-60
2022/02/25 08:12:42;;;;;;;12.93;10.43;;;-1.00;99.90;;;;;;5120996;28;20211;-61
2022/02/25 08:15:15;;;;;;;11.90;10.30;;;-0.90;99.90;;;;;;5124128;28;20564;-60
2022/02/25 08:17:47;;;;;;;15.05;11.02;;;-1.00;99.90;;;;;;5123100;28;20200;-60
2022/02/25 08:20:18;;;;;;;13.13;9.80;;;-1.10;99.90;;;;;;5121813;28;20206;-60
2022/02/25 08:22:49;;;;;;;11.15;9.70;;;-0.90;99.90;;;;;;5117281;28;20263;-60
2022/02/25 08:25:20;;;;;;;12.35;9.90;;;-1.00;99.90;;;;;;5121736;28;20239;-60
2022/02/25 08:27:57;;;;;;;14.07;10.20;;;-1.00;99.90;;;;;;5121768;28;20218;-60
2022/02/25 08:30:30;;;;;;;13.23;9.23;;;-1.10;99.90;;;;;;5119934;28;20226;-60
2022/02/25 08:33:02;;;;;;;10.45;8.45;;;-1.10;99.90;;;;;;5120339;28;20202;-60
2022/02/25 08:35:34;;;;;;;9.27;8.38;;;-1.10;99.90;;;;;;5122547;28;20222;-61
2022/02/25 08:38:06;;;;;;;11.20;9.13;;;-1.20;99.90;;;;;;5124014;28;20222;-60
2022/02/25 08:40:40;;;;;;;12.70;9.82;;;-1.20;99.90;;;;;;5122093;28;20631;-60
2022/02/25 08:43:11;;;;;;;12.20;9.23;;;-1.10;99.90;;;;;;5121736;28;20228;-60
2022/02/25 08:45:45;;;;;;;11.70;9.13;;;-1.10;99.90;;;;;;5121430;28;20252;-61
2022/02/25 08:48:16;;;;;;;13.82;8.85;;;-1.10;99.90;;;;;;5117979;28;20190;-60
2022/02/25 08:50:47;;;;;;;11.45;10.23;;;-1.20;99.90;;;;;;5122690;28;20215;-60
2022/02/25 08:53:18;;;;;;;9.82;8.20;;;-1.20;99.90;;;;;;5122301;28;20271;-60
2022/02/25 08:55:50;;;;;;;10.77;8.13;;;-1.20;99.90;;;;;;5122070;28;20206;-60
2022/02/25 08:58:21;;;;;;;9.95;8.38;;;-1.30;99.90;;;;;;5121985;28;20206;-60
2022/02/25 09:00:54;;;;;;;10.65;8.82;;;-1.20;99.90;;;;;;5122050;28;20195;-60
2022/02/25 09:03:25;;;;;;;8.85;8.02;;;-1.30;99.90;;;;;;5123261;28;20263;-60
2022/02/25 09:05:59;;;;;;;11.15;8.43;;;-1.30;99.90;;;;;;5115095;28;20232;-60
2022/02/25 09:08:30;;;;;;;9.60;7.68;;;-1.30;99.90;;;;;;5119971;28;20196;-60
2022/02/25 09:11:01;;;;;;;7.68;6.93;;;-1.30;99.90;;;;;;5121914;28;20214;-60
2022/02/25 09:13:31;;;;;;;10.23;8.00;;;-1.30;99.90;;;;;;5121759;28;20210;-60
2022/02/25 09:16:05;;;;;;;9.95;7.65;;;-1.30;99.90;;;;;;5122687;28;20188;-60
2022/02/25 09:18:35;;;;;;;8.35;7.45;;;-1.20;99.90;;;;;;5115647;28;20192;-60
2022/02/25 09:21:07;;;;;;;8.88;7.00;;;-1.30;99.90;;;;;;5119637;28;20200;-60
2022/02/25 09:23:38;;;;;;;10.50;6.97;;;-1.30;99.90;;;;;;5118395;28;20295;-60
2022/02/25 09:26:12;;;;;;;7.30;5.97;;;-1.30;99.90;;;;;;5122277;28;20204;-60
2022/02/25 09:28:43;;;;;;;8.82;6.30;;;-1.30;99.90;;;;;;5119896;28;20203;-60
2022/02/25 09:31:17;;;;;;;6.88;6.20;;;-1.30;99.90;;;;;;5118913;28;20203;-60
2022/02/25 09:33:48;;;;;;;8.57;7.40;;;-1.40;99.90;;;;;;5121052;28;20192;-60
2022/02/25 09:36:19;;;;;;;8.25;6.75;;;-1.40;99.90;;;;;;5120143;28;20596;-60
2022/02/25 09:38:52;;;;;;;9.05;6.07;;;-1.40;99.90;;;;;;5121447;28;20196;-60
2022/02/25 09:41:27;;;;;;;8.85;5.93;;;-1.30;99.90;;;;;;5121468;28;20202;-60
2022/02/25 09:43:59;;;;;;;7.43;6.15;;;-1.30;99.90;;;;;;5117812;28;20227;-60
2022/02/25 09:46:37;;;;;;;9.77;7.05;;;-1.30;99.90;;;;;;5124466;28;20195;-61
2022/02/25 09:49:08;;;;;;;6.70;6.00;;;-1.30;99.90;;;;;;5126354;28;20203;-61
2022/02/25 09:51:40;;;;;;;6.22;4.97;;;-1.40;99.90;;;;;;5125745;28;20196;-61
2022/02/25 09:54:16;;;;;;;6.45;5.32;;;-1.40;99.90;;;;;;5124656;28;20208;-61
2022/02/25 09:56:50;;;;;;;6.68;5.10;;;-1.40;99.90;;;;;;5126318;28;20227;-61
2022/02/25 09:59:22;;;;;;;6.03;5.50;;;-1.40;99.90;;;;;;5125836;28;20246;-61
2022/02/25 10:01:54;;;;;;;8.40;5.10;;;-1.40;99.90;;;;;;5125071;28;20213;-61
2022/02/25 10:04:27;;;;;;;6.18;5.55;;;-1.40;99.90;;;;;;5122384;28;20217;-61
2022/02/25 10:06:59;;;;;;;6.57;5.70;;;-1.50;99.90;;;;;;5122336;28;20194;-61
2022/02/25 10:09:34;;;;;;;7.78;6.18;;;-1.50;99.90;;;;;;5125649;28;20264;-61
2022/02/25 10:12:09;;;;;;;6.45;5.85;;;-1.50;99.90;;;;;;5122056;28;20199;-61
2022/02/25 10:14:41;;;;;;;8.70;6.70;;;-1.50;99.90;;;;;;5125598;28;20232;-61
2022/02/25 10:17:17;;;;;;;14.18;7.50;;;-1.50;99.90;;;;;;5125823;28;20203;-61
2022/02/25 10:19:51;;;;;;;11.30;7.43;;;-1.50;99.90;;;;;;5125070;28;20199;-60
2022/02/25 10:22:25;;;;;;;10.20;7.85;;;-1.40;99.90;;;;;;5125497;28;20230;-61
2022/02/25 10:24:58;;;;;;;11.25;7.75;;;-1.50;99.90;;;;;;5124665;28;20233;-60
2022/02/25 10:27:32;;;;;;;9.05;8.15;;;-1.40;99.90;;;;;;5124757;28;20200;-61
2022/02/25 10:30:09;;;;;;;8.63;7.03;;;-1.50;99.90;;;;;;5125531;28;20196;-61
2022/02/25 10:32:43;;;;;;;10.75;8.43;;;-1.50;99.90;;;;;;5110135;28;20221;-61
2022/02/25 10:35:26;;;;;;;9.80;7.95;;;-1.50;99.90;;;;;;5124972;28;20198;-61
2022/02/25 10:37:59;;;;;;;9.18;6.85;;;-1.50;99.90;;;;;;5124861;28;20200;-61
2022/02/25 10:40:32;;;;;;;9.52;7.32;;;-1.50;99.90;;;;;;5125216;28;20562;-61
2022/02/25 10:43:09;;;;;;;7.80;6.60;;;-1.50;99.90;;;;;;5124543;28;20227;-61
2022/02/25 10:45:42;;;;;;;9.48;6.65;;;-1.60;99.90;;;;;;5124549;28;20207;-61
2022/02/25 10:48:16;;;;;;;8.93;7.07;;;-1.50;99.90;;;;;;5113971;28;20200;-61
2022/02/25 10:50:50;;;;;;;10.07;6.55;;;-1.50;99.90;;;;;;5124732;28;20196;-60
2022/02/25 10:53:31;;;;;;;7.90;7.10;;;-1.50;99.90;;;;;;5125244;28;20196;-61
2022/02/25 10:56:10;;;;;;;11.93;8.48;;;-1.50;99.90;;;;;;5122641;28;20300;-61
2022/02/25 10:58:41;;;;;;;8.25;6.90;;;-1.60;99.90;;;;;;5121994;28;20494;-61
2022/02/25 11:01:17;;;;;;;10.05;7.00;;;-1.60;99.90;;;;;;5120487;28;20221;-61
2022/02/25 11:04:02;;;;;;;8.32;7.45;;;-1.60;99.90;;;;;;5125101;28;20346;-61
2022/02/25 11:06:33;;;;;;;10.45;8.45;;;-1.60;99.90;;;;;;5120851;28;20216;-61
2022/02/25 11:09:07;;;;;;;10.80;7.88;;;-1.60;99.90;;;;;;5125160;28;20598;-61
2022/02/25 11:11:38;;;;;;;11.55;8.98;;;-1.60;99.90;;;;;;5123902;28;20559;-61
2022/02/25 11:14:11;;;;;;;11.35;8.75;;;-1.60;99.90;;;;;;5124026;28;20505;-62
2022/02/25 11:16:47;;;;;;;10.20;8.65;;;-1.60;99.90;;;;;;5125023;28;20188;-61
2022/02/25 11:19:28;;;;;;;14.82;8.90;;;-1.70;99.90;;;;;;5124503;28;20220;-61
2022/02/25 11:21:59;;;;;;;10.40;9.30;;;-1.60;99.90;;;;;;5120671;28;20206;-61
2022/02/25 11:24:35;;;;;;;13.13;10.20;;;-1.60;99.90;;;;;;5113271;28;20710;-61
2022/02/25 11:27:26;;;;;;;12.32;9.68;;;-1.60;99.90;;;;;;5123455;28;20218;-61
2022/02/25 11:30:05;;;;;;;11.95;9.70;;;-1.70;99.90;;;;;;5123444;28;20199;-61
2022/02/25 11:32:42;;;;;;;12.05;9.32;;;-1.80;99.90;;;;;;5121156;28;20551;-61
2022/02/25 11:35:28;;;;;;;10.48;8.77;;;-1.80;99.90;;;;;;5122713;28;20180;-62
2022/02/25 11:38:08;;;;;;;13.88;10.98;;;-1.80;99.90;;;;;;5124745;28;20291;-61
2022/02/25 11:40:58;;;;;;;13.77;10.75;;;-1.90;99.90;;;;;;5124002;28;20208;-61
2022/02/25 11:43:44;;;;;;;15.27;11.00;;;-2.00;99.90;;;;;;5123527;28;20216;-61
2022/02/25 11:46:23;;;;;;;14.90;10.43;;;-2.00;99.90;;;;;;5124270;28;20222;-61
2022/02/25 11:49:01;;;;;;;15.95;11.63;;;-2.00;99.90;;;;;;5124067;28;20204;-61
2022/02/25 11:51:36;;;;;;;17.60;11.80;;;-1.90;99.90;;;;;;5123122;27;20196;-61
2022/02/25 11:54:46;;;;;;;19.02;14.00;;;-1.90;99.90;;;;;;5124124;28;20218;-61
2022/02/25 11:57:28;;;;;;;14.27;12.07;;;-1.90;99.90;;;;;;5122882;28;20228;-61
2022/02/25 12:00:23;;;;;;;18.90;13.70;;;-1.90;99.90;;;;;;5123757;28;20200;-61
2022/02/25 12:03:15;;;;;;;17.15;13.18;;;-1.90;99.90;;;;;;5110926;28;20196;-61
2022/02/25 12:05:49;;;;;;;15.07;12.85;;;-2.00;99.90;;;;;;5122765;28;20300;-61
2022/02/25 12:08:34;;;;;;;17.45;13.10;;;-2.00;99.90;;;;;;5123476;28;20316;-61
2022/02/25 12:11:31;;;;;;;17.52;12.95;;;-2.10;99.90;;;;;;5123168;28;20263;-61
2022/02/25 12:14:02;;;;;;;16.73;12.05;;;-2.10;99.90;;;;;;5121887;28;20199;-61
2022/02/25 12:16:35;;;;;;;16.35;13.75;;;-2.10;99.90;;;;;;5123676;28;20320;-61
2022/02/25 12:19:11;;;;;;;21.00;14.38;;;-2.20;99.90;;;;;;5122679;28;20193;-61
2022/02/25 12:21:44;;;;;;;675.78;124.90;;;-2.10;99.90;;;;;;5123312;28;20203;-61
2022/02/25 12:24:18;;;;;;;19.35;13.85;;;-2.00;99.90;;;;;;5123072;28;20204;-61
2022/02/25 12:27:01;;;;;;;1242.93;208.82;;;-2.00;99.90;;;;;;5123678;28;20199;-61
2022/02/25 12:29:39;;;;;;;15.35;12.30;;;-2.10;99.90;;;;;;5118210;28;20254;-61
2022/02/25 12:32:11;;;;;;;16.20;12.35;;;-2.10;99.90;;;;;;5113321;28;20255;-61
2022/02/25 12:34:42;;;;;;;16.63;12.45;;;-2.20;99.90;;;;;;5123170;28;20684;-61
2022/02/25 12:37:19;;;;;;;16.08;12.40;;;-2.30;99.90;;;;;;5119484;28;20210;-61
2022/02/25 12:40:10;;;;;;;17.42;12.38;;;-2.20;99.90;;;;;;5122589;28;20200;-61
2022/02/25 12:42:41;;;;;;;20.48;13.00;;;-2.30;99.90;;;;;;5114503;28;20298;-61
2022/02/25 12:45:12;;;;;;;15.07;10.70;;;-2.30;99.90;;;;;;5122465;28;20674;-61
2022/02/25 12:47:43;;;;;;;14.65;11.15;;;-2.30;99.90;;;;;;5121817;28;20187;-61
2022/02/25 12:50:17;;;;;;;13.30;10.38;;;-2.30;99.90;;;;;;5122650;28;20663;-60
2022/02/25 12:52:48;;;;;;;17.38;10.90;;;-2.40;99.90;;;;;;5122311;28;20234;-61
2022/02/25 12:55:20;;;;;;;13.40;11.10;;;-2.40;99.90;;;;;;5123337;28;20204;-61
2022/02/25 12:57:58;;;;;;;12.80;9.80;;;-2.40;99.90;;;;;;5121580;28;20219;-60
2022/02/25 13:00:31;;;;;;;13.70;10.98;;;-2.40;99.90;;;;;;5119390;28;20203;-60
2022/02/25 13:03:03;;;;;;;17.98;12.30;;;-2.40;99.90;;;;;;5119931;28;20191;-60
2022/02/25 13:05:34;;;;;;;14.85;10.98;;;-2.40;99.90;;;;;;5123085;28;20247;-61
2022/02/25 13:08:06;;;;;;;661.00;127.90;;;-2.40;99.90;;;;;;5122095;28;20204;-60
2022/02/25 13:10:41;;;;;;;16.55;11.95;;;-2.30;99.90;;;;;;5123021;28;20211;-61
2022/02/25 13:13:12;;;;;;;19.63;11.00;;;-2.30;99.90;;;;;;5120583;28;20227;-61
2022/02/25 13:15:43;;;;;;;14.20;11.15;;;-2.30;99.90;;;;;;5121581;28;20191;-61